Time;durP1;ratioP1;P1;durP2;ratioP2;P2;SDS_P1;SDS_P2;PMS_P1;PMS_P2;Temp;Humidity;BMP_temperature;BMP_pressure;BME280_temperature;BME280_humidity;BME280_pressure;Samples;Min_cycle;Max_cycle;Signal;HPM_P1;HPM_P2
2023/08/06 00:00:47;;;;;;;9.23;7.97;;;;;;;;;;5082410;28;20501;-75
2023/08/06 00:03:13;;;;;;;11.55;8.32;;;;;;;;;;5063392;28;20041;-75
2023/08/06 00:05:42;;;;;;;11.23;8.45;;;;;;;;;;5056822;28;20045;-75
2023/08/06 00:08:08;;;;;;;9.90;8.43;;;;;;;;;;5067322;28;20491;-75
2023/08/06 00:10:34;;;;;;;11.75;9.05;;;;;;;;;;5076053;28;20044;-75
2023/08/06 00:13:01;;;;;;;12.63;9.23;;;;;;;;;;5076185;28;20044;-75
2023/08/06 00:15:27;;;;;;;10.57;8.93;;;;;;;;;;5076102;28;20039;-75
2023/08/06 00:17:53;;;;;;;12.68;9.55;;;;;;;;;;5065370;28;20132;-75
2023/08/06 00:20:19;;;;;;;14.25;10.25;;;;;;;;;;5055760;28;20099;-75
2023/08/06 00:22:45;;;;;;;13.25;9.77;;;;;;;;;;5069729;28;20041;-75
2023/08/06 00:25:11;;;;;;;15.35;12.23;;;;;;;;;;5076161;28;20048;-75
2023/08/06 00:27:38;;;;;;;14.50;11.27;;;;;;;;;;5055636;28;20533;-75
2023/08/06 00:30:07;;;;;;;17.90;13.35;;;;;;;;;;5055677;28;20075;-75
2023/08/06 00:32:33;;;;;;;17.55;12.25;;;;;;;;;;5055359;28;20435;-75
2023/08/06 00:34:59;;;;;;;19.30;13.77;;;;;;;;;;5056285;28;20041;-75
2023/08/06 00:37:25;;;;;;;16.90;12.75;;;;;;;;;;5067670;28;20049;-75
2023/08/06 00:39:51;;;;;;;16.67;12.82;;;;;;;;;;5075419;28;20052;-75
2023/08/06 00:42:20;;;;;;;18.38;13.55;;;;;;;;;;5056971;28;20132;-75
2023/08/06 00:44:46;;;;;;;18.55;12.93;;;;;;;;;;5073189;28;20123;-75
2023/08/06 00:47:12;;;;;;;16.25;12.48;;;;;;;;;;5075923;28;20052;-75
2023/08/06 00:49:39;;;;;;;15.40;11.90;;;;;;;;;;5075548;28;20123;-75
2023/08/06 00:52:06;;;;;;;18.40;12.00;;;;;;;;;;5075385;28;20041;-75
2023/08/06 00:54:32;;;;;;;15.85;12.45;;;;;;;;;;5074377;28;20044;-75
2023/08/06 00:56:59;;;;;;;17.98;12.57;;;;;;;;;;5074533;28;20045;-75
2023/08/06 00:59:25;;;;;;;16.65;11.68;;;;;;;;;;5057245;28;20037;-75
2023/08/06 01:01:52;;;;;;;16.70;12.38;;;;;;;;;;5055009;28;20476;-75
2023/08/06 01:04:18;;;;;;;15.95;11.82;;;;;;;;;;5054153;28;20056;-75
2023/08/06 01:07:03;;;;;;;18.08;11.48;;;;;;;;;;5054630;28;20037;-75
2023/08/06 01:09:36;;;;;;;17.58;12.15;;;;;;;;;;5060835;28;20076;-75
2023/08/06 01:12:05;;;;;;;16.05;11.30;;;;;;;;;;5065668;28;20049;-75
2023/08/06 01:14:34;;;;;;;15.90;11.85;;;;;;;;;;5054839;28;20349;-75
2023/08/06 01:17:01;;;;;;;12.52;10.10;;;;;;;;;;5064092;28;20041;-75
2023/08/06 01:19:27;;;;;;;13.13;10.93;;;;;;;;;;5075031;28;20135;-75
2023/08/06 01:21:53;;;;;;;15.32;11.32;;;;;;;;;;5074942;28;20051;-75
2023/08/06 01:24:19;;;;;;;13.45;11.15;;;;;;;;;;5074960;28;20086;-75
2023/08/06 01:27:04;;;;;;;18.02;11.15;;;;;;;;;;5063827;28;20049;-75
2023/08/06 01:29:42;;;;;;;15.20;10.73;;;;;;;;;;5054394;28;20499;-75
2023/08/06 01:32:10;;;;;;;16.42;10.38;;;;;;;;;;5054814;28;20045;-75
2023/08/06 01:34:36;;;;;;;12.82;10.30;;;;;;;;;;5065039;28;20049;-75
2023/08/06 01:37:03;;;;;;;13.02;10.35;;;;;;;;;;5074383;28;20068;-75
2023/08/06 01:39:29;;;;;;;14.45;10.68;;;;;;;;;;5074160;28;20049;-75
2023/08/06 01:41:55;;;;;;;12.55;10.27;;;;;;;;;;5061065;28;20156;-75
2023/08/06 01:44:21;;;;;;;14.60;10.30;;;;;;;;;;5054834;28;20045;-75
2023/08/06 01:46:47;;;;;;;14.90;11.25;;;;;;;;;;5059020;28;20133;-75
2023/08/06 01:49:13;;;;;;;15.18;10.82;;;;;;;;;;5058678;28;20113;-75
2023/08/06 01:51:39;;;;;;;15.88;10.75;;;;;;;;;;5052697;28;20514;-75
2023/08/06 01:54:05;;;;;;;12.02;9.73;;;;;;;;;;5056830;28;20044;-75
2023/08/06 01:56:31;;;;;;;14.85;10.10;;;;;;;;;;5072764;28;20376;-75
2023/08/06 01:58:57;;;;;;;16.02;10.88;;;;;;;;;;5071778;28;20124;-75
2023/08/06 02:01:23;;;;;;;14.50;10.43;;;;;;;;;;5059580;28;20224;-75
2023/08/06 02:03:49;;;;;;;14.02;9.68;;;;;;;;;;5073995;28;20048;-75
2023/08/06 02:06:16;;;;;;;15.10;10.55;;;;;;;;;;5072696;28;20052;-75
2023/08/06 02:08:42;;;;;;;12.73;10.10;;;;;;;;;;5054556;28;20137;-75
2023/08/06 02:11:08;;;;;;;14.05;10.07;;;;;;;;;;5036016;28;20072;-75
2023/08/06 02:13:34;;;;;;;13.25;10.48;;;;;;;;;;5036046;28;20070;-75
2023/08/06 02:16:00;;;;;;;16.27;10.40;;;;;;;;;;5070909;28;20052;-75
2023/08/06 02:18:26;;;;;;;14.98;10.93;;;;;;;;;;5072023;28;20120;-75
2023/08/06 02:20:59;;;;;;;13.00;9.88;;;;;;;;;;5072904;28;20398;-75
2023/08/06 02:23:25;;;;;;;15.73;10.32;;;;;;;;;;5070376;28;20482;-74
2023/08/06 02:26:04;;;;;;;14.85;9.90;;;;;;;;;;5071565;28;20246;-75
2023/08/06 02:28:32;;;;;;;12.45;9.68;;;;;;;;;;5072437;28;20048;-75
2023/08/06 02:30:58;;;;;;;13.63;11.07;;;;;;;;;;5066663;28;20504;-76
2023/08/06 02:33:24;;;;;;;14.45;10.23;;;;;;;;;;5052506;28;20136;-76
2023/08/06 02:35:51;;;;;;;15.65;10.48;;;;;;;;;;5073085;28;20072;-80
2023/08/06 02:38:17;;;;;;;13.27;9.80;;;;;;;;;;5060165;28;20061;-78
2023/08/06 02:40:44;;;;;;;15.15;9.50;;;;;;;;;;5053546;28;20072;-77
2023/08/06 02:43:10;;;;;;;14.55;10.57;;;;;;;;;;5051824;28;20484;-77
2023/08/06 02:45:36;;;;;;;13.38;10.25;;;;;;;;;;5071814;28;20047;-77
2023/08/06 02:48:02;;;;;;;13.20;10.00;;;;;;;;;;5071515;28;20135;-77
2023/08/06 02:50:28;;;;;;;14.10;9.82;;;;;;;;;;5070216;28;20052;-76
2023/08/06 02:52:54;;;;;;;12.98;9.40;;;;;;;;;;5072781;28;20405;-76
2023/08/06 02:55:21;;;;;;;13.13;9.45;;;;;;;;;;5053700;28;20372;-77
2023/08/06 02:57:47;;;;;;;15.05;10.52;;;;;;;;;;5052149;28;20045;-77
2023/08/06 03:00:13;;;;;;;14.13;10.43;;;;;;;;;;5052097;28;20048;-76
2023/08/06 03:02:39;;;;;;;16.70;11.40;;;;;;;;;;5072792;28;20083;-76
2023/08/06 03:05:06;;;;;;;14.25;10.18;;;;;;;;;;5055128;28;20053;-76
2023/08/06 03:07:33;;;;;;;13.80;10.40;;;;;;;;;;5058867;28;20052;-76
2023/08/06 03:10:02;;;;;;;18.73;10.10;;;;;;;;;;5071474;28;20054;-76
2023/08/06 03:12:28;;;;;;;15.50;10.70;;;;;;;;;;5071337;28;20063;-76
2023/08/06 03:14:54;;;;;;;14.38;10.32;;;;;;;;;;5071353;28;20426;-76
2023/08/06 03:17:20;;;;;;;12.93;9.75;;;;;;;;;;5067501;28;20054;-76
2023/08/06 03:19:47;;;;;;;18.17;11.20;;;;;;;;;;5067105;28;20059;-77
2023/08/06 03:22:13;;;;;;;13.88;10.38;;;;;;;;;;5063385;28;20048;-76
2023/08/06 03:24:39;;;;;;;16.13;11.10;;;;;;;;;;5051490;28;20131;-76
2023/08/06 03:27:05;;;;;;;13.18;10.15;;;;;;;;;;5052728;28;20094;-76
2023/08/06 03:29:31;;;;;;;13.15;10.50;;;;;;;;;;5067701;28;20040;-75
2023/08/06 03:31:57;;;;;;;15.77;11.30;;;;;;;;;;5057156;28;20452;-75
2023/08/06 03:34:23;;;;;;;14.02;9.98;;;;;;;;;;5057330;28;20041;-76
2023/08/06 03:36:49;;;;;;;15.35;10.65;;;;;;;;;;5051894;28;20373;-75
2023/08/06 03:39:15;;;;;;;13.05;10.88;;;;;;;;;;5051142;28;20499;-75
2023/08/06 03:41:41;;;;;;;15.50;12.10;;;;;;;;;;5053770;28;20102;-75
2023/08/06 03:44:07;;;;;;;13.63;10.77;;;;;;;;;;5072153;28;20098;-75
2023/08/06 03:46:33;;;;;;;15.15;10.75;;;;;;;;;;5051097;28;20127;-75
2023/08/06 03:49:03;;;;;;;14.55;11.25;;;;;;;;;;5068180;28;20076;-75
2023/08/06 03:51:29;;;;;;;15.20;10.68;;;;;;;;;;5052575;28;20123;-75
2023/08/06 03:53:55;;;;;;;14.63;11.20;;;;;;;;;;5052752;28;20056;-75
2023/08/06 03:56:21;;;;;;;17.00;11.90;;;;;;;;;;5052522;28;20411;-75
2023/08/06 03:58:47;;;;;;;13.45;10.57;;;;;;;;;;5060715;28;20045;-75
2023/08/06 04:01:13;;;;;;;13.55;11.45;;;;;;;;;;5066410;28;20110;-75
2023/08/06 04:03:39;;;;;;;13.45;10.65;;;;;;;;;;5051473;28;20057;-75
2023/08/06 04:06:05;;;;;;;17.20;11.68;;;;;;;;;;5052276;28;20045;-75
2023/08/06 04:08:32;;;;;;;14.32;11.98;;;;;;;;;;5052169;28;20559;-75
2023/08/06 04:10:58;;;;;;;15.25;11.10;;;;;;;;;;5050845;28;20092;-76
2023/08/06 04:13:24;;;;;;;15.63;11.90;;;;;;;;;;5061098;28;20044;-76
2023/08/06 04:15:50;;;;;;;15.10;11.88;;;;;;;;;;5067486;28;20127;-75
2023/08/06 04:18:16;;;;;;;17.17;12.65;;;;;;;;;;5050613;28;20048;-75
2023/08/06 04:20:45;;;;;;;15.25;11.60;;;;;;;;;;5050960;28;20049;-76
2023/08/06 04:23:11;;;;;;;14.57;11.98;;;;;;;;;;5068507;28;20048;-76
2023/08/06 04:25:38;;;;;;;13.68;11.23;;;;;;;;;;5071463;28;20087;-76
2023/08/06 04:28:04;;;;;;;15.75;12.38;;;;;;;;;;5071041;28;20077;-75
2023/08/06 04:30:30;;;;;;;16.77;12.93;;;;;;;;;;5053930;28;20400;-76
2023/08/06 04:32:59;;;;;;;19.10;12.82;;;;;;;;;;5069939;28;20045;-75
2023/08/06 04:35:25;;;;;;;16.88;12.45;;;;;;;;;;5070869;28;20055;-76
2023/08/06 04:37:51;;;;;;;15.45;11.75;;;;;;;;;;5070342;28;20579;-76
2023/08/06 04:40:17;;;;;;;19.35;12.48;;;;;;;;;;5071963;28;20045;-75
2023/08/06 04:42:44;;;;;;;15.88;12.23;;;;;;;;;;5071817;28;20044;-75
2023/08/06 04:45:10;;;;;;;16.00;12.45;;;;;;;;;;5070634;28;20402;-75
2023/08/06 04:47:36;;;;;;;18.05;12.65;;;;;;;;;;5075313;28;20411;-75
2023/08/06 04:50:02;;;;;;;23.40;12.40;;;;;;;;;;5075278;28;20556;-76
2023/08/06 04:52:28;;;;;;;15.10;11.38;;;;;;;;;;5073845;28;20037;-75
2023/08/06 04:54:55;;;;;;;17.77;12.00;;;;;;;;;;5075654;28;20087;-75
2023/08/06 04:57:21;;;;;;;16.27;11.93;;;;;;;;;;5075323;28;20045;-75
2023/08/06 04:59:47;;;;;;;15.27;12.20;;;;;;;;;;5063575;28;20393;-75
2023/08/06 05:02:13;;;;;;;17.50;12.73;;;;;;;;;;5057137;28;20044;-75
2023/08/06 05:04:39;;;;;;;17.30;13.45;;;;;;;;;;5055126;28;20419;-75
2023/08/06 05:07:08;;;;;;;17.23;12.95;;;;;;;;;;5069903;28;20040;-75
2023/08/06 05:09:34;;;;;;;17.05;11.43;;;;;;;;;;5074898;28;20076;-75
2023/08/06 05:12:04;;;;;;;19.40;12.30;;;;;;;;;;5074036;28;20044;-75
2023/08/06 05:14:30;;;;;;;15.80;11.48;;;;;;;;;;5057233;28;20389;-75
2023/08/06 05:16:56;;;;;;;16.15;11.80;;;;;;;;;;5065388;28;20459;-75
2023/08/06 05:19:22;;;;;;;16.67;12.18;;;;;;;;;;5074733;28;20475;-76
2023/08/06 05:21:48;;;;;;;15.23;11.68;;;;;;;;;;5071971;28;20095;-76
2023/08/06 05:24:14;;;;;;;14.98;11.45;;;;;;;;;;5074997;28;20041;-75
2023/08/06 05:26:40;;;;;;;14.13;9.80;;;;;;;;;;5073721;28;20041;-75
2023/08/06 05:29:06;;;;;;;13.10;10.15;;;;;;;;;;5066857;28;20395;-75
2023/08/06 05:31:33;;;;;;;16.05;11.05;;;;;;;;;;5074918;28;20398;-75
2023/08/06 05:33:59;;;;;;;15.27;10.93;;;;;;;;;;5073360;28;20040;-75
2023/08/06 05:36:25;;;;;;;12.48;10.10;;;;;;;;;;5055725;28;20040;-76
2023/08/06 05:38:51;;;;;;;16.30;10.27;;;;;;;;;;5054123;28;20514;-75
2023/08/06 05:41:17;;;;;;;13.48;10.50;;;;;;;;;;5053741;28;20400;-75
2023/08/06 05:43:43;;;;;;;13.18;10.88;;;;;;;;;;5054733;28;20450;-76
2023/08/06 05:46:09;;;;;;;14.70;9.50;;;;;;;;;;5054293;28;20466;-75
2023/08/06 05:48:35;;;;;;;12.73;10.32;;;;;;;;;;5057166;28;20398;-76
2023/08/06 05:51:01;;;;;;;12.95;8.55;;;;;;;;;;5061746;28;20474;-76
2023/08/06 05:53:27;;;;;;;11.00;8.43;;;;;;;;;;5072129;28;20087;-76
2023/08/06 05:55:53;;;;;;;10.65;9.00;;;;;;;;;;5054798;28;20055;-76
2023/08/06 05:58:24;;;;;;;11.30;8.60;;;;;;;;;;5053889;28;20555;-76
2023/08/06 06:00:50;;;;;;;12.48;9.40;;;;;;;;;;5054156;28;20501;-75
2023/08/06 06:03:16;;;;;;;10.23;8.70;;;;;;;;;;5069946;28;20116;-75
2023/08/06 06:05:42;;;;;;;9.70;8.10;;;;;;;;;;5073012;28;20072;-76
2023/08/06 06:08:08;;;;;;;9.10;7.53;;;;;;;;;;5054369;28;20063;-75
2023/08/06 06:10:34;;;;;;;8.55;6.72;;;;;;;;;;5053912;28;20052;-76
2023/08/06 06:13:00;;;;;;;7.43;6.40;;;;;;;;;;5069137;28;20045;-76
2023/08/06 06:15:26;;;;;;;9.63;7.28;;;;;;;;;;5066143;28;20048;-76
2023/08/06 06:17:52;;;;;;;9.55;7.05;;;;;;;;;;5062140;28;20048;-76
2023/08/06 06:20:18;;;;;;;8.65;6.38;;;;;;;;;;5052941;28;20052;-75
2023/08/06 06:22:44;;;;;;;9.77;7.03;;;;;;;;;;5071301;28;20056;-76
2023/08/06 06:25:10;;;;;;;8.25;6.20;;;;;;;;;;5055950;28;20048;-76
2023/08/06 06:27:36;;;;;;;9.82;6.80;;;;;;;;;;5054713;28;20400;-76
2023/08/06 06:30:03;;;;;;;10.27;7.57;;;;;;;;;;5058359;28;20132;-76
2023/08/06 06:32:29;;;;;;;8.85;6.65;;;;;;;;;;5073687;28;20044;-76
2023/08/06 06:34:56;;;;;;;9.02;6.70;;;;;;;;;;5073175;28;20120;-76
2023/08/06 06:37:22;;;;;;;7.40;6.05;;;;;;;;;;5073611;28;20045;-76
2023/08/06 06:39:48;;;;;;;7.65;6.18;;;;;;;;;;5054588;28;20061;-76
2023/08/06 06:42:15;;;;;;;7.47;6.78;;;;;;;;;;5058657;28;20051;-75
2023/08/06 06:44:41;;;;;;;9.15;6.38;;;;;;;;;;5072077;28;20102;-76
2023/08/06 06:47:07;;;;;;;6.97;6.25;;;;;;;;;;5073372;28;20052;-76
2023/08/06 06:49:33;;;;;;;10.30;6.72;;;;;;;;;;5073301;28;20048;-77
2023/08/06 06:51:59;;;;;;;8.15;6.47;;;;;;;;;;5071571;28;20070;-77
2023/08/06 06:54:25;;;;;;;6.97;6.20;;;;;;;;;;5073389;28;20051;-77
2023/08/06 06:56:51;;;;;;;8.23;6.32;;;;;;;;;;5058616;28;20045;-76
2023/08/06 06:59:17;;;;;;;8.40;6.22;;;;;;;;;;5054902;28;20045;-76
2023/08/06 07:01:43;;;;;;;7.68;6.40;;;;;;;;;;5068911;28;20095;-76
2023/08/06 07:04:09;;;;;;;8.02;6.63;;;;;;;;;;5067449;28;20045;-78
2023/08/06 07:06:35;;;;;;;8.50;6.57;;;;;;;;;;5070156;28;20072;-76
2023/08/06 07:09:01;;;;;;;7.60;6.38;;;;;;;;;;5071591;28;20048;-76
2023/08/06 07:11:27;;;;;;;7.38;6.35;;;;;;;;;;5066082;28;20441;-76
2023/08/06 07:13:58;;;;;;;7.97;5.85;;;;;;;;;;5072756;28;20487;-76
2023/08/06 07:16:24;;;;;;;6.43;5.53;;;;;;;;;;5066854;28;20041;-76
2023/08/06 07:18:52;;;;;;;6.13;5.20;;;;;;;;;;5052541;28;20044;-76
2023/08/06 07:21:18;;;;;;;8.82;6.13;;;;;;;;;;5054649;28;20052;-76
2023/08/06 07:23:45;;;;;;;6.78;6.07;;;;;;;;;;5072874;28;20045;-76
2023/08/06 07:26:11;;;;;;;8.05;6.30;;;;;;;;;;5067553;28;20049;-76
2023/08/06 07:28:37;;;;;;;7.18;5.30;;;;;;;;;;5052552;28;20083;-76
2023/08/06 07:31:03;;;;;;;6.65;4.90;;;;;;;;;;5068257;28;20040;-80
2023/08/06 07:33:30;;;;;;;6.07;4.63;;;;;;;;;;5072997;28;20051;-80
2023/08/06 07:35:56;;;;;;;6.53;5.03;;;;;;;;;;5073364;28;20127;-81
2023/08/06 07:38:22;;;;;;;6.25;5.53;;;;;;;;;;5056041;28;20049;-82
2023/08/06 07:40:48;;;;;;;7.57;5.75;;;;;;;;;;5064957;28;20067;-81
2023/08/06 07:43:14;;;;;;;5.50;4.82;;;;;;;;;;5072959;28;20044;-81
2023/08/06 07:45:40;;;;;;;7.13;5.07;;;;;;;;;;5072688;28;20049;-81
2023/08/06 07:48:06;;;;;;;5.95;5.00;;;;;;;;;;5075201;28;20044;-81
2023/08/06 07:50:32;;;;;;;5.50;4.38;;;;;;;;;;5076061;28;20118;-81
2023/08/06 07:52:58;;;;;;;5.88;4.88;;;;;;;;;;5072892;28;20048;-80
2023/08/06 07:55:25;;;;;;;6.03;4.70;;;;;;;;;;5054047;28;20048;-80
2023/08/06 07:57:51;;;;;;;5.90;4.40;;;;;;;;;;5054476;28;20057;-81
2023/08/06 08:00:17;;;;;;;5.57;3.92;;;;;;;;;;5055693;28;20070;-81
2023/08/06 08:02:43;;;;;;;5.07;3.75;;;;;;;;;;5054364;28;20110;-81
2023/08/06 08:05:10;;;;;;;6.28;3.35;;;;;;;;;;5055496;28;20059;-81
2023/08/06 08:07:38;;;;;;;4.07;3.67;;;;;;;;;;5072064;28;20091;-81
2023/08/06 08:10:05;;;;;;;5.50;3.90;;;;;;;;;;5074366;28;20623;-81
2023/08/06 08:12:33;;;;;;;4.82;4.32;;;;;;;;;;5074266;28;20062;-81
2023/08/06 08:15:07;;;;;;;7.13;4.40;;;;;;;;;;5074839;28;20045;-81
2023/08/06 08:17:34;;;;;;;6.40;3.80;;;;;;;;;;5076835;28;20052;-81
2023/08/06 08:20:00;;;;;;;5.22;4.03;;;;;;;;;;5076811;28;20052;-81
2023/08/06 08:22:26;;;;;;;6.10;4.22;;;;;;;;;;5066522;28;20055;-81
2023/08/06 08:24:52;;;;;;;3.47;3.17;;;;;;;;;;5057761;28;20388;-81
2023/08/06 08:27:20;;;;;;;4.75;3.42;;;;;;;;;;5058542;28;20041;-81
2023/08/06 08:29:46;;;;;;;5.30;3.90;;;;;;;;;;5057322;28;20053;-81
2023/08/06 08:32:12;;;;;;;4.70;3.70;;;;;;;;;;5058136;28;20206;-81
2023/08/06 08:34:41;;;;;;;3.70;3.15;;;;;;;;;;5058202;28;20049;-81
2023/08/06 08:37:07;;;;;;;4.75;3.00;;;;;;;;;;5056577;28;20041;-81
2023/08/06 08:39:33;;;;;;;4.85;3.20;;;;;;;;;;5069394;28;20135;-81
2023/08/06 08:42:01;;;;;;;3.33;3.00;;;;;;;;;;5077986;28;20044;-81
2023/08/06 08:44:29;;;;;;;4.20;2.83;;;;;;;;;;5076034;28;20376;-80
2023/08/06 08:46:56;;;;;;;4.00;2.72;;;;;;;;;;5062048;28;20041;-81
2023/08/06 08:49:24;;;;;;;4.20;3.05;;;;;;;;;;5057464;28;20067;-81
2023/08/06 08:51:53;;;;;;;3.58;3.10;;;;;;;;;;5070890;28;20045;-81
2023/08/06 08:54:23;;;;;;;3.97;2.80;;;;;;;;;;5070549;28;20036;-81
2023/08/06 08:56:49;;;;;;;3.28;2.63;;;;;;;;;;5073708;28;20113;-81
2023/08/06 08:59:15;;;;;;;4.55;2.90;;;;;;;;;;5077664;28;20036;-81
2023/08/06 09:01:43;;;;;;;4.07;2.70;;;;;;;;;;5073086;28;20053;-81
2023/08/06 09:04:12;;;;;;;3.58;3.20;;;;;;;;;;5070888;28;20105;-81
2023/08/06 09:06:47;;;;;;;3.42;2.60;;;;;;;;;;5075652;28;20048;-81
2023/08/06 09:09:14;;;;;;;4.82;2.80;;;;;;;;;;5065865;28;20487;-81
2023/08/06 09:11:44;;;;;;;4.15;3.00;;;;;;;;;;5074440;28;20540;-81
2023/08/06 09:14:10;;;;;;;3.80;3.00;;;;;;;;;;5075957;28;20040;-81
2023/08/06 09:16:39;;;;;;;3.78;2.80;;;;;;;;;;5073863;28;20036;-81
2023/08/06 09:19:31;;;;;;;3.97;2.85;;;;;;;;;;5076570;28;20444;-81
2023/08/06 09:22:02;;;;;;;4.63;3.00;;;;;;;;;;5067359;28;20044;-81
2023/08/06 09:24:28;;;;;;;5.30;3.72;;;;;;;;;;5073597;28;20033;-81
2023/08/06 09:27:03;;;;;;;6.55;3.08;;;;;;;;;;5074803;28;20047;-81
2023/08/06 09:29:35;;;;;;;4.00;3.35;;;;;;;;;;5068334;28;20039;-81
2023/08/06 09:32:01;;;;;;;4.45;3.15;;;;;;;;;;5067845;28;20510;-81
2023/08/06 09:34:30;;;;;;;4.47;3.03;;;;;;;;;;5067550;28;20040;-81
2023/08/06 09:36:56;;;;;;;6.38;3.03;;;;;;;;;;5062389;28;20036;-81
2023/08/06 09:39:27;;;;;;;5.53;3.33;;;;;;;;;;5077164;28;20110;-81
2023/08/06 09:41:58;;;;;;;3.35;3.05;;;;;;;;;;5061468;28;20045;-81
2023/08/06 09:44:28;;;;;;;3.75;3.00;;;;;;;;;;5069262;28;20123;-81
2023/08/06 10:11:39;;;;;;;5.53;3.50;;;;;;;;;;4905438;29;20365;-81
2023/08/06 10:14:17;;;;;;;4.97;3.50;;;;;;;;;;4892854;29;20051;-79
2023/08/06 10:16:44;;;;;;;5.63;3.40;;;;;;;;;;4937369;29;20099;-79
2023/08/06 10:19:10;;;;;;;5.13;3.45;;;;;;;;;;4904276;29;20446;-83
2023/08/06 10:21:38;;;;;;;7.53;3.45;;;;;;;;;;4934558;29;20056;-80
2023/08/06 10:24:10;;;;;;;5.13;3.85;;;;;;;;;;4917486;29;20052;-80
2023/08/06 10:26:36;;;;;;;4.88;3.92;;;;;;;;;;4902605;29;20067;-79
2023/08/06 10:29:22;;;;;;;4.97;3.92;;;;;;;;;;4941051;29;20083;-79
2023/08/06 10:31:48;;;;;;;;;;;;;;;;;;4939606;29;20056;-79
2023/08/06 10:34:18;;;;;;;5.38;4.55;;;;;;;;;;4945593;29;19986;-80
2023/08/06 10:36:45;;;;;;;6.70;5.10;;;;;;;;;;4932472;29;20043;-80
2023/08/06 10:39:14;;;;;;;5.70;4.45;;;;;;;;;;4975216;28;20110;-79
2023/08/06 10:41:43;;;;;;;6.43;4.18;;;;;;;;;;5031764;28;20048;-79
2023/08/06 10:44:10;;;;;;;5.18;4.15;;;;;;;;;;5060189;28;20107;-79
2023/08/06 10:46:37;;;;;;;7.18;4.32;;;;;;;;;;5059136;28;20048;-79
2023/08/06 10:49:07;;;;;;;5.55;4.10;;;;;;;;;;5064712;28;20078;-80
2023/08/06 10:51:33;;;;;;;6.70;4.22;;;;;;;;;;5095804;28;20056;-80
2023/08/06 10:53:59;;;;;;;5.68;3.65;;;;;;;;;;5057083;28;20049;-80
2023/08/06 10:56:29;;;;;;;4.60;3.80;;;;;;;;;;5057196;28;20067;-80
2023/08/06 10:58:56;;;;;;;7.10;4.65;;;;;;;;;;5058034;28;20099;-80
2023/08/06 11:01:23;;;;;;;4.72;3.50;;;;;;;;;;5057388;28;20740;-83
2023/08/06 11:03:50;;;;;;;4.80;3.97;;;;;;;;;;5064051;28;20043;-80
2023/08/06 11:06:20;;;;;;;4.35;3.40;;;;;;;;;;5064076;28;20114;-80
2023/08/06 11:08:51;;;;;;;4.82;3.80;;;;;;;;;;5075618;28;20056;-80
2023/08/06 11:11:17;;;;;;;3.80;3.20;;;;;;;;;;5062965;28;20037;-80
2023/08/06 11:13:46;;;;;;;6.18;3.95;;;;;;;;;;5075109;28;20072;-80
2023/08/06 11:16:13;;;;;;;6.35;4.00;;;;;;;;;;5069380;28;20055;-80
2023/08/06 11:18:41;;;;;;;4.68;3.60;;;;;;;;;;5069640;28;20090;-80
2023/08/06 11:21:07;;;;;;;4.60;3.80;;;;;;;;;;5065149;28;20051;-80
2023/08/06 11:23:34;;;;;;;4.68;3.70;;;;;;;;;;5075865;28;20045;-80
2023/08/06 11:26:00;;;;;;;4.07;3.20;;;;;;;;;;5075674;28;20067;-80
2023/08/06 11:28:26;;;;;;;3.88;3.15;;;;;;;;;;5072434;28;20048;-80
2023/08/06 11:30:53;;;;;;;4.80;3.47;;;;;;;;;;5065261;28;20037;-80
2023/08/06 11:33:28;;;;;;;5.07;3.78;;;;;;;;;;5071905;28;20094;-80
2023/08/06 11:35:58;;;;;;;5.40;3.27;;;;;;;;;;5068032;28;20132;-80
2023/08/06 11:38:30;;;;;;;3.88;3.10;;;;;;;;;;5072278;28;20060;-80
2023/08/06 11:40:56;;;;;;;4.65;3.42;;;;;;;;;;5074225;28;20093;-80
2023/08/06 11:43:23;;;;;;;5.40;3.88;;;;;;;;;;5070322;28;20339;-80
2023/08/06 11:45:50;;;;;;;5.88;4.03;;;;;;;;;;5077504;28;20075;-80
2023/08/06 11:48:18;;;;;;;12.00;4.05;;;;;;;;;;5071919;28;20033;-80
2023/08/06 11:50:44;;;;;;;5.40;3.97;;;;;;;;;;5073812;28;20056;-80
2023/08/06 11:53:12;;;;;;;4.82;3.38;;;;;;;;;;5074854;28;20487;-80
2023/08/06 11:55:38;;;;;;;5.57;3.45;;;;;;;;;;5082140;28;20120;-80
2023/08/06 11:58:05;;;;;;;4.65;3.88;;;;;;;;;;5079646;28;20053;-80
2023/08/06 12:00:31;;;;;;;4.32;3.65;;;;;;;;;;5064563;28;20134;-80
2023/08/06 12:02:57;;;;;;;5.65;3.75;;;;;;;;;;5070468;28;20037;-80
2023/08/06 12:05:24;;;;;;;5.07;3.78;;;;;;;;;;5081255;28;20040;-80
2023/08/06 12:07:52;;;;;;;4.35;3.78;;;;;;;;;;5082662;28;20052;-80
2023/08/06 12:10:20;;;;;;;7.63;4.45;;;;;;;;;;5080866;28;20044;-80
2023/08/06 12:12:46;;;;;;;4.40;3.80;;;;;;;;;;5075890;28;20132;-80
2023/08/06 12:15:12;;;;;;;4.63;3.45;;;;;;;;;;5072917;28;20075;-80
2023/08/06 12:17:39;;;;;;;4.43;3.15;;;;;;;;;;5071813;28;20041;-80
2023/08/06 12:20:06;;;;;;;5.63;3.20;;;;;;;;;;5070075;28;20079;-80
2023/08/06 12:22:34;;;;;;;4.30;3.45;;;;;;;;;;5081976;28;20075;-80
2023/08/06 12:25:03;;;;;;;5.28;3.72;;;;;;;;;;5074467;28;20053;-80
2023/08/06 12:27:29;;;;;;;3.85;3.20;;;;;;;;;;5074141;28;20059;-80
2023/08/06 12:29:55;;;;;;;4.72;3.70;;;;;;;;;;5079581;28;20461;-80
2023/08/06 12:32:21;;;;;;;4.40;3.10;;;;;;;;;;5076419;28;20047;-80
2023/08/06 12:34:48;;;;;;;5.07;4.00;;;;;;;;;;5071478;28;20048;-80
2023/08/06 12:37:14;;;;;;;4.63;3.95;;;;;;;;;;5082472;28;20056;-80
2023/08/06 12:39:40;;;;;;;3.78;2.92;;;;;;;;;;5079962;28;20388;-81
2023/08/06 12:42:06;;;;;;;4.70;3.40;;;;;;;;;;5079702;28;20049;-80
2023/08/06 12:44:33;;;;;;;6.35;3.47;;;;;;;;;;5079862;28;20096;-80
2023/08/06 12:46:59;;;;;;;4.03;3.20;;;;;;;;;;5065141;28;20052;-80
2023/08/06 12:49:26;;;;;;;4.70;3.17;;;;;;;;;;5068074;28;20036;-80
2023/08/06 12:51:52;;;;;;;6.38;3.28;;;;;;;;;;5076055;28;20041;-80
2023/08/06 12:54:19;;;;;;;4.57;3.22;;;;;;;;;;5074528;28;20037;-80
2023/08/06 12:56:48;;;;;;;7.45;3.70;;;;;;;;;;5070503;28;20071;-80
2023/08/06 12:59:17;;;;;;;3.67;2.72;;;;;;;;;;5076615;28;20040;-80
2023/08/06 13:01:43;;;;;;;3.97;3.45;;;;;;;;;;5076336;28;20076;-80
2023/08/06 13:04:10;;;;;;;3.97;3.20;;;;;;;;;;5073440;28;20041;-80
2023/08/06 13:06:37;;;;;;;4.10;3.20;;;;;;;;;;5066534;28;20040;-81
2023/08/06 13:09:03;;;;;;;4.07;2.78;;;;;;;;;;5051648;28;20068;-81
2023/08/06 13:11:31;;;;;;;3.92;2.85;;;;;;;;;;5065201;28;20041;-80
2023/08/06 13:13:59;;;;;;;5.57;3.00;;;;;;;;;;5077504;28;20049;-80
2023/08/06 13:16:25;;;;;;;3.63;2.75;;;;;;;;;;5076269;28;20120;-80
2023/08/06 13:18:51;;;;;;;3.00;2.70;;;;;;;;;;5076811;28;20051;-80
2023/08/06 13:21:17;;;;;;;3.50;2.70;;;;;;;;;;5070880;28;20048;-80
2023/08/06 13:23:43;;;;;;;5.78;2.85;;;;;;;;;;5069689;28;20044;-81
2023/08/06 13:26:12;;;;;;;3.67;2.50;;;;;;;;;;5066047;28;20052;-81
2023/08/06 13:28:38;;;;;;;3.67;2.78;;;;;;;;;;5055077;28;20055;-81
2023/08/06 13:31:04;;;;;;;3.13;2.50;;;;;;;;;;5064373;28;20056;-81
2023/08/06 13:33:30;;;;;;;4.65;2.72;;;;;;;;;;5067718;28;20045;-80
2023/08/06 13:35:56;;;;;;;3.60;2.78;;;;;;;;;;5065880;28;20040;-81
2023/08/06 13:38:27;;;;;;;3.22;2.53;;;;;;;;;;5071527;28;20044;-81
2023/08/06 13:40:53;;;;;;;3.47;2.38;;;;;;;;;;5067796;28;20053;-81
2023/08/06 13:43:19;;;;;;;4.15;2.90;;;;;;;;;;5071303;28;20040;-81
2023/08/06 13:45:48;;;;;;;4.47;2.72;;;;;;;;;;5074738;28;20045;-81
2023/08/06 13:48:14;;;;;;;4.53;2.58;;;;;;;;;;5071824;28;20040;-81
2023/08/06 13:50:40;;;;;;;4.20;2.58;;;;;;;;;;5068120;28;20037;-81
2023/08/06 13:53:06;;;;;;;9.00;2.80;;;;;;;;;;5076077;28;20041;-81
2023/08/06 13:55:35;;;;;;;3.15;2.70;;;;;;;;;;5074460;28;20049;-81
2023/08/06 13:58:01;;;;;;;4.15;2.88;;;;;;;;;;5057178;28;20479;-80
2023/08/06 14:00:27;;;;;;;3.50;3.00;;;;;;;;;;5068315;28;20051;-80
2023/08/06 14:02:53;;;;;;;4.28;2.75;;;;;;;;;;5077433;28;20044;-80
2023/08/06 14:05:19;;;;;;;4.22;3.20;;;;;;;;;;5069406;28;20048;-80
2023/08/06 14:07:45;;;;;;;3.40;2.67;;;;;;;;;;5073579;28;20041;-80
2023/08/06 14:10:11;;;;;;;4.40;3.10;;;;;;;;;;5081982;28;20040;-81
2023/08/06 14:12:37;;;;;;;5.70;3.20;;;;;;;;;;5082671;28;20126;-81
2023/08/06 14:15:04;;;;;;;3.60;2.90;;;;;;;;;;5077653;28;20033;-81
2023/08/06 14:17:33;;;;;;;2.78;2.40;;;;;;;;;;5070780;28;20036;-81
2023/08/06 14:20:00;;;;;;;2.90;2.35;;;;;;;;;;5066329;28;20055;-80
2023/08/06 14:22:26;;;;;;;3.83;2.78;;;;;;;;;;5079314;28;20048;-80
2023/08/06 14:24:53;;;;;;;4.30;3.20;;;;;;;;;;5060542;28;20048;-81
2023/08/06 14:27:19;;;;;;;3.78;2.67;;;;;;;;;;5091120;28;20057;-81
2023/08/06 14:29:45;;;;;;;3.55;2.78;;;;;;;;;;5062861;28;20051;-80
2023/08/06 14:32:11;;;;;;;4.03;2.90;;;;;;;;;;5069638;28;20040;-80
2023/08/06 14:34:37;;;;;;;4.55;2.50;;;;;;;;;;5074429;28;20128;-81
2023/08/06 14:37:04;;;;;;;4.57;3.15;;;;;;;;;;5068489;28;20384;-80
2023/08/06 14:39:30;;;;;;;5.32;3.53;;;;;;;;;;5078072;28;20052;-80
2023/08/06 14:41:58;;;;;;;5.40;3.60;;;;;;;;;;5078625;28;20051;-80
2023/08/06 14:44:24;;;;;;;7.22;3.20;;;;;;;;;;5072273;28;20521;-80
2023/08/06 14:46:50;;;;;;;5.85;4.25;;;;;;;;;;5078075;28;20071;-80
2023/08/06 14:49:16;;;;;;;4.43;3.40;;;;;;;;;;5067709;28;20114;-80
2023/08/06 14:51:43;;;;;;;4.55;2.80;;;;;;;;;;5075633;28;20040;-80
2023/08/06 14:54:09;;;;;;;4.93;3.00;;;;;;;;;;5076288;28;20093;-80
2023/08/06 14:56:35;;;;;;;3.88;2.80;;;;;;;;;;5069550;28;20044;-80